createdAt,value
2022-12-23T00:01:44.964Z,57.08
2022-12-23T00:04:17.549Z,59.27
2022-12-23T00:06:50.244Z,54.95
2022-12-23T00:09:22.893Z,58.40
2022-12-23T00:12:14.902Z,55.45
2022-12-23T00:15:05.913Z,59.77
2022-12-23T00:17:44.600Z,56.37
2022-12-23T00:20:17.611Z,62.38
2022-12-23T00:23:06.084Z,59.25
2022-12-23T00:25:42.315Z,57.98
2022-12-23T00:28:19.067Z,55.92
2022-12-23T00:30:55.632Z,60.75
2022-12-23T00:33:39.285Z,55.08
2022-12-23T00:36:19.424Z,59.18
2022-12-23T00:39:10.343Z,58.90
2022-12-23T00:42:00.668Z,59.63
2022-12-23T00:44:33.184Z,50.12
2022-12-23T00:47:05.621Z,51.23
2022-12-23T00:49:44.216Z,55.50
2022-12-23T00:52:16.826Z,51.88
2022-12-23T00:54:49.285Z,54.55
2022-12-23T00:57:22.335Z,58.20
2022-12-23T00:59:55.215Z,57.53
2022-12-23T01:02:45.592Z,53.45
2022-12-23T01:05:36.369Z,52.67
2022-12-23T01:08:11.992Z,53.15
2022-12-23T01:10:44.565Z,51.63
2022-12-23T01:13:17.869Z,54.08
2022-12-23T01:15:51.705Z,54.77
2022-12-23T01:18:25.255Z,57.90
2022-12-23T01:21:00.031Z,52.08
2022-12-23T01:26:07.349Z,50.78
2022-12-23T01:28:41.131Z,55.70
2022-12-23T01:31:15.150Z,49.77
2022-12-23T01:33:48.708Z,52.80
2022-12-23T01:36:22.800Z,53.97
2022-12-23T01:38:57.051Z,51.68
2022-12-23T01:41:49.755Z,50.63
2022-12-23T01:45:02.978Z,48.15
2022-12-23T01:47:52.998Z,55.67
2022-12-23T01:50:57.465Z,45.73
2022-12-23T01:53:35.012Z,48.78
2022-12-23T01:56:27.288Z,53.40
2022-12-23T01:59:10.618Z,49.25
2022-12-23T02:02:01.390Z,49.23
2022-12-23T02:04:34.762Z,54.70
2022-12-23T02:07:26.606Z,46.92
2022-12-23T02:10:00.642Z,48.38
2022-12-23T02:12:47.926Z,51.55
2022-12-23T02:16:07.015Z,53.38
2022-12-23T02:19:16.211Z,49.45
2022-12-23T02:22:00.565Z,48.98
2022-12-23T02:25:28.802Z,49.50
2022-12-23T02:28:27.026Z,46.63
2022-12-23T02:31:16.593Z,47.95
2022-12-23T02:33:55.170Z,48.33
2022-12-23T02:36:52.367Z,52.60
2022-12-23T02:39:56.878Z,46.80
2022-12-23T02:42:35.257Z,40.75
2022-12-23T02:45:24.714Z,47.70
2022-12-23T02:48:01.034Z,46.42
2022-12-23T02:50:38.105Z,45.25
2022-12-23T02:53:24.427Z,44.10
2022-12-23T02:55:56.995Z,43.92
2022-12-23T02:58:33.133Z,42.30
2022-12-23T03:03:50.558Z,43.65
2022-12-23T03:06:48.649Z,50.88
2022-12-23T03:09:50.297Z,42.25
2022-12-23T03:12:45.646Z,43.13
2022-12-23T03:15:29.264Z,44.77
2022-12-23T03:18:30.759Z,47.38
2022-12-23T03:21:14.117Z,42.25
2022-12-23T03:23:55.760Z,41.55
2022-12-23T03:26:50.206Z,43.60
2022-12-23T03:29:36.441Z,49.33
2022-12-23T03:32:08.902Z,39.75
2022-12-23T03:34:43.985Z,46.13
2022-12-23T03:37:18.324Z,42.90
2022-12-23T03:39:55.085Z,41.15
2022-12-23T03:42:38.421Z,46.15
2022-12-23T03:45:40.067Z,44.05
2022-12-23T03:47:56.513Z,43.10
2022-12-23T03:50:29.321Z,42.08
2022-12-23T03:53:19.216Z,40.30
2022-12-23T03:56:15.306Z,43.92
2022-12-23T03:58:58.850Z,41.20
2022-12-23T04:04:29.022Z,47.50
2022-12-23T04:07:08.969Z,46.25
2022-12-23T04:09:42.275Z,48.00
2022-12-23T04:12:15.966Z,45.95
2022-12-23T04:14:52.488Z,47.58
2022-12-23T04:17:25.797Z,46.20
2022-12-23T04:19:59.441Z,52.03
2022-12-23T04:22:32.941Z,52.93
2022-12-23T04:25:07.910Z,47.62
2022-12-23T04:27:42.452Z,47.10
2022-12-23T04:30:15.283Z,49.38
2022-12-23T04:32:48.140Z,45.63
2022-12-23T04:35:21.649Z,48.42
2022-12-23T04:37:54.462Z,47.98
2022-12-23T04:40:27.191Z,54.27
2022-12-23T04:43:00.127Z,50.23
2022-12-23T04:45:35.027Z,47.07
2022-12-23T04:48:08.456Z,47.98
2022-12-23T04:50:41.758Z,47.70
2022-12-23T04:53:18.435Z,54.60
2022-12-23T04:55:53.691Z,51.85
2022-12-23T04:58:27.075Z,49.83
2022-12-23T05:01:23.933Z,54.48
2022-12-23T05:03:56.420Z,49.95
2022-12-23T05:06:29.317Z,52.43
2022-12-23T05:09:01.984Z,58.20
2022-12-23T05:11:40.176Z,61.30
2022-12-23T05:14:11.059Z,53.50
2022-12-23T05:16:44.178Z,54.13
2022-12-23T05:19:16.866Z,59.65
2022-12-23T05:21:49.329Z,50.95
2022-12-23T05:24:21.829Z,53.15
2022-12-23T05:26:59.814Z,57.95
2022-12-23T05:29:29.124Z,53.35
2022-12-23T05:32:01.925Z,54.63
2022-12-23T05:34:35.873Z,49.50
2022-12-23T05:37:08.831Z,49.85
2022-12-23T05:39:42.198Z,51.23
2022-12-23T05:42:16.765Z,51.33
2022-12-23T05:44:49.350Z,54.63
2022-12-23T05:47:21.841Z,52.08
2022-12-23T05:49:55.098Z,49.53
2022-12-23T05:52:28.263Z,56.65
2022-12-23T05:55:01.205Z,53.35
2022-12-23T05:57:33.707Z,49.23
2022-12-23T06:00:07.304Z,55.00
2022-12-23T06:02:44.374Z,52.08
2022-12-23T06:07:49.080Z,51.90
2022-12-23T06:10:22.751Z,54.45
2022-12-23T06:12:55.896Z,51.65
2022-12-23T06:15:28.852Z,55.40
2022-12-23T06:18:02.830Z,52.50
2022-12-23T06:20:35.650Z,50.03
2022-12-23T06:23:08.682Z,56.25
2022-12-23T06:25:41.229Z,54.70
2022-12-23T06:28:13.795Z,54.18
2022-12-23T06:30:46.949Z,51.13
2022-12-23T06:33:19.695Z,57.00
2022-12-23T06:35:52.119Z,55.70
2022-12-23T06:38:24.723Z,58.05
2022-12-23T06:40:57.554Z,59.35
2022-12-23T06:43:30.090Z,60.43
2022-12-23T06:46:02.990Z,57.45
2022-12-23T06:48:35.603Z,58.25
2022-12-23T06:51:07.942Z,61.85
2022-12-23T06:53:41.082Z,62.35
2022-12-23T06:56:13.842Z,59.00
2022-12-23T17:54:04.789Z,85.17
2022-12-23T17:56:38.041Z,86.65
2022-12-23T17:59:10.393Z,78.37
2022-12-23T18:01:42.884Z,84.77
2022-12-23T18:04:16.136Z,89.10
2022-12-23T18:06:48.636Z,84.10
2022-12-23T18:09:21.724Z,86.55
2022-12-23T18:11:54.863Z,82.20
2022-12-23T18:14:32.169Z,84.07
2022-12-23T18:17:04.868Z,86.92
2022-12-23T18:19:37.737Z,80.12
2022-12-23T18:22:17.665Z,82.12
2022-12-23T18:24:57.033Z,80.20
2022-12-23T18:27:25.372Z,75.42
2022-12-23T18:29:58.164Z,79.60
2022-12-23T18:32:30.669Z,80.62
2022-12-23T18:35:03.566Z,84.62
2022-12-23T18:37:36.106Z,80.75
2022-12-23T18:40:09.789Z,69.87
2022-12-23T18:42:42.647Z,75.42
2022-12-23T18:48:21.671Z,81.70
2022-12-23T18:50:54.170Z,76.30
2022-12-23T18:53:26.675Z,77.32
2022-12-23T18:55:59.088Z,82.00
2022-12-23T18:58:31.544Z,79.05
2022-12-23T19:01:04.060Z,78.83
2022-12-23T19:03:36.671Z,77.10
2022-12-23T19:06:10.313Z,78.72
2022-12-23T19:08:43.426Z,73.05
2022-12-23T19:11:21.088Z,75.67
2022-12-23T19:13:53.404Z,78.85
2022-12-23T19:16:26.437Z,77.53
2022-12-23T19:18:58.962Z,82.02
2022-12-23T19:21:32.079Z,76.20
2022-12-23T19:24:05.195Z,80.45
2022-12-23T19:26:37.684Z,78.47
2022-12-23T19:29:10.166Z,72.72
2022-12-23T19:34:16.227Z,83.50
2022-12-23T19:36:49.017Z,86.32
2022-12-23T19:39:22.091Z,80.07
2022-12-23T19:41:54.954Z,79.47
2022-12-23T19:44:27.992Z,71.15
2022-12-23T19:47:00.345Z,75.08
2022-12-23T19:49:34.553Z,73.63
2022-12-23T19:52:07.153Z,79.47
2022-12-23T19:54:40.399Z,77.82
2022-12-23T19:57:12.781Z,77.12
2022-12-23T19:59:45.216Z,82.75
2022-12-23T20:02:18.343Z,84.95
2022-12-23T20:04:50.819Z,83.27
2022-12-23T20:07:23.196Z,85.12
2022-12-23T20:09:55.604Z,79.15
2022-12-23T20:12:28.259Z,78.90
2022-12-23T20:15:00.914Z,80.30
2022-12-23T20:17:33.901Z,78.80
2022-12-23T20:20:27.385Z,85.12
2022-12-23T20:23:00.519Z,82.45
2022-12-23T20:25:32.999Z,79.32
2022-12-23T20:28:06.154Z,76.42
2022-12-23T20:30:38.700Z,75.83
2022-12-23T20:33:11.821Z,81.80
2022-12-23T20:35:44.318Z,74.30
2022-12-23T20:38:16.608Z,74.45
2022-12-23T20:40:48.982Z,78.60
2022-12-23T20:43:21.872Z,76.53
2022-12-23T20:45:54.372Z,81.02
2022-12-23T20:48:33.475Z,77.30
2022-12-23T20:51:08.622Z,84.50
2022-12-23T20:53:41.012Z,84.85
2022-12-23T20:56:16.459Z,82.78
2022-12-23T20:58:59.397Z,87.42
2022-12-23T21:01:35.481Z,77.47
2022-12-23T21:04:15.808Z,83.27
2022-12-23T21:06:48.719Z,85.00
2022-12-23T21:09:22.275Z,82.20
2022-12-23T21:11:54.933Z,80.60
2022-12-23T21:14:27.291Z,81.63
2022-12-23T21:16:59.711Z,83.12
2022-12-23T21:19:32.066Z,80.45
2022-12-23T21:22:04.474Z,87.40
2022-12-23T21:24:36.816Z,86.00
2022-12-23T21:27:09.720Z,91.30
2022-12-23T21:29:42.251Z,101.70
2022-12-23T21:32:14.842Z,94.00
2022-12-23T21:34:48.023Z,98.05
2022-12-23T21:37:20.493Z,91.02
2022-12-23T21:39:52.814Z,90.07
2022-12-23T21:42:25.229Z,91.30
2022-12-23T21:44:57.795Z,92.15
2022-12-23T21:47:31.364Z,95.00
2022-12-23T21:50:04.651Z,88.92
2022-12-23T21:52:37.361Z,84.32
2022-12-23T21:55:12.212Z,92.82
2022-12-23T21:57:45.573Z,87.72
2022-12-23T22:00:18.480Z,84.70
2022-12-23T22:02:51.061Z,81.82
2022-12-23T22:05:23.696Z,86.55
2022-12-23T22:07:56.151Z,90.32
2022-12-23T22:10:28.826Z,85.20
2022-12-23T22:13:01.297Z,84.97
2022-12-23T22:15:34.052Z,90.05
2022-12-23T22:18:06.542Z,82.00
2022-12-23T22:20:46.062Z,86.53
2022-12-23T22:23:14.265Z,85.50
2022-12-23T22:25:55.112Z,84.72
2022-12-23T22:28:27.491Z,94.47
2022-12-23T22:31:18.171Z,83.33
2022-12-23T22:33:50.838Z,87.70
2022-12-23T22:36:23.203Z,83.92
2022-12-23T22:38:57.400Z,89.75
2022-12-23T22:41:32.327Z,90.50
2022-12-23T22:46:36.752Z,93.33
2022-12-23T22:49:09.213Z,86.72
2022-12-23T22:51:41.909Z,89.45
2022-12-23T22:54:14.488Z,93.40
2022-12-23T22:56:46.951Z,94.17
2022-12-23T22:59:23.070Z,88.10
2022-12-23T23:01:55.703Z,86.17
2022-12-23T23:04:28.442Z,79.25
2022-12-23T23:07:00.933Z,85.10
2022-12-23T23:09:33.519Z,90.22
2022-12-23T23:12:06.448Z,85.00
2022-12-23T23:14:54.495Z,96.22
2022-12-23T23:17:28.485Z,90.20
2022-12-23T23:20:01.414Z,87.35
2022-12-23T23:22:33.952Z,79.90
2022-12-23T23:25:07.887Z,84.25
2022-12-23T23:27:40.489Z,91.97
2022-12-23T23:30:14.642Z,86.77
2022-12-23T23:32:47.222Z,85.22
2022-12-23T23:35:19.640Z,84.87
2022-12-23T23:37:52.251Z,78.25
2022-12-23T23:40:24.964Z,80.12
2022-12-23T23:42:57.291Z,81.85
2022-12-23T23:45:30.433Z,82.70
2022-12-23T23:48:03.043Z,81.50
2022-12-23T23:50:35.553Z,80.07
2022-12-23T23:53:07.958Z,80.80
2022-12-23T23:55:40.523Z,90.25
2022-12-23T23:58:14.419Z,95.80
